Time;durP1;ratioP1;P1;durP2;ratioP2;P2;SDS_P1;SDS_P2;PMS_P1;PMS_P2;Temp;Humidity;BMP_temperature;BMP_pressure;BME280_temperature;BME280_humidity;BME280_pressure;Samples;Min_cycle;Max_cycle;Signal;HPM_P1;HPM_P2
2023/06/12 00:01:09;;;;;;;3.33;1.60;;;19.30;76.60;;;;;;5071257;28;20047;-64
2023/06/12 00:03:35;;;;;;;3.80;1.60;;;19.20;76.50;;;;;;5071378;28;20037;-65
2023/06/12 00:06:01;;;;;;;3.85;2.20;;;19.20;76.40;;;;;;5072035;28;20044;-65
2023/06/12 00:08:29;;;;;;;2.35;1.70;;;19.10;76.60;;;;;;5072280;28;20076;-65
2023/06/12 00:10:55;;;;;;;3.03;1.55;;;19.10;76.60;;;;;;5072560;28;20049;-65
2023/06/12 00:13:22;;;;;;;3.75;2.03;;;19.00;76.60;;;;;;5071870;28;20380;-66
2023/06/12 00:15:48;;;;;;;4.30;1.63;;;18.90;76.70;;;;;;5071070;28;20124;-65
2023/06/12 00:18:14;;;;;;;2.72;1.45;;;18.90;77.10;;;;;;5070592;28;20048;-64
2023/06/12 00:20:40;;;;;;;2.78;1.73;;;18.80;77.10;;;;;;5071749;28;20085;-65
2023/06/12 00:23:06;;;;;;;3.55;1.35;;;18.70;77.30;;;;;;5071018;28;20033;-65
2023/06/12 00:25:33;;;;;;;2.42;1.30;;;18.60;77.70;;;;;;5071083;28;20051;-65
2023/06/12 00:27:58;;;;;;;2.13;1.40;;;18.60;77.60;;;;;;5070425;28;20036;-65
2023/06/12 00:30:24;;;;;;;4.72;1.60;;;18.60;77.70;;;;;;5070723;28;20041;-65
2023/06/12 00:32:50;;;;;;;4.40;1.45;;;18.60;77.60;;;;;;5070932;28;20041;-65
2023/06/12 00:35:18;;;;;;;3.90;1.45;;;18.60;77.70;;;;;;5053471;28;20127;-65
2023/06/12 00:37:49;;;;;;;1.80;1.23;;;18.50;78.00;;;;;;5072207;28;20107;-65
2023/06/12 00:40:15;;;;;;;2.35;1.35;;;18.50;78.40;;;;;;5054279;28;20040;-65
2023/06/12 00:42:45;;;;;;;2.10;1.30;;;18.30;78.10;;;;;;5070110;28;20364;-65
2023/06/12 00:45:15;;;;;;;;;;;18.30;78.40;;;;;;5072300;28;20045;-65
2023/06/12 00:47:42;;;;;;;3.75;1.48;;;18.20;79.60;;;;;;5070227;28;19920;-65
2023/06/12 00:50:12;;;;;;;1.65;0.93;;;18.20;79.00;;;;;;5070374;28;20053;-65
2023/06/12 00:52:44;;;;;;;3.08;1.30;;;18.10;78.80;;;;;;5070756;28;20408;-66
2023/06/12 00:55:11;;;;;;;3.88;1.40;;;18.10;78.90;;;;;;5053092;28;20043;-66
2023/06/12 00:57:38;;;;;;;2.05;0.95;;;18.00;78.90;;;;;;5071692;28;20072;-66
2023/06/12 01:00:07;;;;;;;2.78;0.93;;;17.90;79.10;;;;;;5070707;28;20047;-66
2023/06/12 01:02:42;;;;;;;;;;;17.90;79.50;;;;;;5070012;28;20115;-65
2023/06/12 01:05:13;;;;;;;1.73;0.88;;;17.90;81.30;;;;;;5071301;28;20369;-66
2023/06/12 01:07:54;;;;;;;4.00;1.33;;;17.90;79.60;;;;;;5069814;28;20123;-65
2023/06/12 01:10:52;;;;;;;1.58;1.20;;;17.80;79.70;;;;;;5069567;28;20131;-66
2023/06/12 01:13:19;;;;;;;2.60;0.85;;;17.80;79.90;;;;;;5053555;28;20443;-65
2023/06/12 01:15:45;;;;;;;1.85;1.30;;;17.70;79.80;;;;;;5052461;28;20048;-66
2023/06/12 01:18:11;;;;;;;2.88;0.82;;;17.70;80.00;;;;;;5070101;28;20040;-65
2023/06/12 01:20:37;;;;;;;2.13;1.00;;;17.70;80.10;;;;;;5069921;28;20033;-65
2023/06/12 01:23:11;;;;;;;2.35;1.20;;;17.60;80.20;;;;;;5052486;28;20040;-65
2023/06/12 01:25:37;;;;;;;3.28;1.70;;;17.60;80.30;;;;;;5052998;28;20044;-66
2023/06/12 01:28:39;;;;;;;1.70;1.00;;;17.60;80.40;;;;;;5069829;28;20090;-65
2023/06/12 01:31:16;;;;;;;4.07;1.27;;;17.60;81.00;;;;;;5070199;28;20042;-65
2023/06/12 01:33:54;;;;;;;3.00;1.50;;;17.50;80.70;;;;;;5071037;28;20040;-65
2023/06/12 01:36:23;;;;;;;1.65;0.95;;;17.50;81.00;;;;;;5070839;28;20036;-65
2023/06/12 01:38:55;;;;;;;2.22;1.25;;;17.40;80.80;;;;;;5069827;28;20037;-65
2023/06/12 01:41:26;;;;;;;2.70;1.20;;;17.30;81.30;;;;;;5069521;28;20048;-66
2023/06/12 01:43:52;;;;;;;1.73;0.73;;;17.30;82.20;;;;;;5068748;28;20044;-66
2023/06/12 01:46:18;;;;;;;1.80;0.85;;;17.20;81.60;;;;;;5069471;28;20136;-65
2023/06/12 01:48:43;;;;;;;2.30;1.20;;;17.20;81.90;;;;;;5069363;28;20419;-65
2023/06/12 01:51:09;;;;;;;4.05;1.38;;;17.20;82.10;;;;;;5068702;28;20044;-65
2023/06/12 01:53:35;;;;;;;1.45;0.85;;;17.10;82.40;;;;;;5068974;28;20083;-65
2023/06/12 01:56:01;;;;;;;2.10;1.02;;;17.10;82.20;;;;;;5068990;28;20072;-66
2023/06/12 01:58:28;;;;;;;3.13;1.30;;;17.10;82.40;;;;;;5052247;28;20131;-65
2023/06/12 02:00:55;;;;;;;2.35;1.20;;;17.10;82.70;;;;;;5069253;28;20488;-65
2023/06/12 02:03:23;;;;;;;2.47;1.00;;;17.00;83.00;;;;;;5070360;28;20041;-65
2023/06/12 02:05:49;;;;;;;2.80;1.23;;;16.90;83.20;;;;;;5068182;28;20055;-65
2023/06/12 02:08:15;;;;;;;2.47;1.35;;;16.90;83.30;;;;;;5068850;28;20485;-65
2023/06/12 02:10:41;;;;;;;2.40;1.20;;;16.90;83.40;;;;;;5068782;28;20127;-65
2023/06/12 02:13:07;;;;;;;1.67;0.90;;;16.90;83.60;;;;;;5069567;28;20041;-65
2023/06/12 02:15:32;;;;;;;1.45;0.77;;;16.80;84.10;;;;;;5052117;28;20508;-65
2023/06/12 02:17:58;;;;;;;1.80;0.93;;;16.70;83.70;;;;;;5069031;28;20037;-65
2023/06/12 02:20:24;;;;;;;1.67;1.00;;;16.70;84.00;;;;;;5068300;28;20439;-65
2023/06/12 02:22:50;;;;;;;2.33;1.25;;;16.70;83.90;;;;;;5070127;28;20120;-65
2023/06/12 02:25:15;;;;;;;1.52;1.00;;;16.60;84.30;;;;;;5069974;28;20067;-65
2023/06/12 02:27:41;;;;;;;1.63;0.80;;;16.60;84.50;;;;;;5069802;28;20714;-65
2023/06/12 02:30:08;;;;;;;1.95;0.80;;;16.50;84.70;;;;;;5070232;28;20496;-65
2023/06/12 02:32:35;;;;;;;2.85;0.98;;;16.50;84.90;;;;;;5068197;28;20062;-65
2023/06/12 02:35:01;;;;;;;1.73;1.17;;;16.40;85.10;;;;;;5069886;28;20036;-65
2023/06/12 02:37:31;;;;;;;1.88;1.08;;;16.40;86.00;;;;;;5069923;28;20063;-65
2023/06/12 02:39:57;;;;;;;3.50;1.75;;;16.40;86.00;;;;;;5068221;28;20054;-65
2023/06/12 02:42:23;;;;;;;1.90;1.00;;;16.40;86.20;;;;;;5069601;28;20548;-65
2023/06/12 02:44:49;;;;;;;2.60;1.10;;;16.40;86.20;;;;;;5069872;28;20116;-65
2023/06/12 02:47:15;;;;;;;1.77;0.90;;;16.30;86.20;;;;;;5067956;28;20585;-65
2023/06/12 02:49:44;;;;;;;1.48;0.73;;;16.40;86.30;;;;;;5068416;28;20040;-65
2023/06/12 02:52:13;;;;;;;1.65;0.80;;;16.30;86.10;;;;;;5069834;28;20044;-65
2023/06/12 02:54:39;;;;;;;3.53;1.55;;;16.30;86.30;;;;;;5069295;28;20048;-65
2023/06/12 02:57:05;;;;;;;1.92;1.00;;;16.20;86.40;;;;;;5068518;28;20045;-65
2023/06/12 02:59:31;;;;;;;1.98;1.00;;;16.20;86.90;;;;;;5068515;28;20131;-65
2023/06/12 03:01:56;;;;;;;5.22;1.50;;;16.20;87.50;;;;;;5050997;28;20128;-65
2023/06/12 03:04:23;;;;;;;1.42;0.90;;;16.20;88.00;;;;;;5051821;28;20127;-65
2023/06/12 03:06:53;;;;;;;2.03;1.02;;;16.10;88.40;;;;;;5069303;28;20048;-65
2023/06/12 03:09:19;;;;;;;3.50;1.00;;;16.10;88.50;;;;;;5068758;28;20520;-65
2023/06/12 03:11:47;;;;;;;2.15;1.33;;;16.10;89.00;;;;;;5068406;28;20397;-65
2023/06/12 03:14:13;;;;;;;1.33;0.68;;;16.00;89.00;;;;;;5068404;28;20393;-65
2023/06/12 03:16:39;;;;;;;2.50;1.17;;;16.00;89.00;;;;;;5067817;28;20048;-65
2023/06/12 03:19:06;;;;;;;1.85;0.95;;;15.90;89.30;;;;;;5069514;28;20041;-65
2023/06/12 03:21:32;;;;;;;2.35;1.30;;;15.90;89.80;;;;;;5069368;28;20134;-65
2023/06/12 03:23:57;;;;;;;4.32;1.17;;;15.80;89.90;;;;;;5068250;28;20075;-65
2023/06/12 03:26:23;;;;;;;3.60;1.10;;;15.70;90.20;;;;;;5068016;28;20066;-65
2023/06/12 03:28:50;;;;;;;2.13;1.20;;;15.70;90.20;;;;;;5051042;28;20422;-65
2023/06/12 03:31:16;;;;;;;3.83;1.50;;;15.70;90.20;;;;;;5051298;28;20492;-65
2023/06/12 03:33:42;;;;;;;1.30;0.85;;;15.70;90.10;;;;;;5068248;28;20043;-65
2023/06/12 03:36:08;;;;;;;1.77;1.05;;;15.70;90.30;;;;;;5067322;28;20431;-65
2023/06/12 03:38:34;;;;;;;3.03;1.38;;;15.70;90.50;;;;;;5069159;28;20134;-65
2023/06/12 03:40:59;;;;;;;4.25;1.05;;;15.70;90.20;;;;;;5069105;28;20079;-65
2023/06/12 03:43:25;;;;;;;1.80;1.05;;;15.70;90.50;;;;;;5068708;28;20032;-65
2023/06/12 03:45:51;;;;;;;2.22;1.10;;;15.70;90.50;;;;;;5067904;28;20068;-65
2023/06/12 03:48:17;;;;;;;5.95;1.30;;;15.80;90.70;;;;;;5067800;28;20037;-65
2023/06/12 03:50:43;;;;;;;2.08;1.10;;;15.80;90.90;;;;;;5067489;28;20131;-65
2023/06/12 03:53:08;;;;;;;3.30;1.05;;;15.80;91.00;;;;;;5069336;28;20044;-65
2023/06/12 03:55:35;;;;;;;1.48;0.85;;;15.80;90.80;;;;;;5054555;28;20074;-65
2023/06/12 03:58:02;;;;;;;1.27;0.60;;;15.80;91.20;;;;;;5070936;28;20105;-65
2023/06/12 04:00:27;;;;;;;2.13;1.30;;;15.80;91.10;;;;;;5071297;28;20043;-65
2023/06/12 04:02:56;;;;;;;1.60;0.80;;;15.80;90.90;;;;;;5071376;28;20044;-65
2023/06/12 04:05:22;;;;;;;3.28;1.38;;;15.90;91.20;;;;;;5071951;28;20044;-65
2023/06/12 04:07:48;;;;;;;1.38;0.75;;;15.90;91.30;;;;;;5071372;28;20037;-65
2023/06/12 04:10:14;;;;;;;2.13;1.20;;;15.90;90.90;;;;;;5072482;28;20049;-65
2023/06/12 04:12:40;;;;;;;1.67;1.05;;;15.90;91.40;;;;;;5053805;28;20109;-65
2023/06/12 04:15:06;;;;;;;3.20;1.13;;;15.90;91.30;;;;;;5071083;28;20036;-65
2023/06/12 04:17:32;;;;;;;2.10;0.95;;;16.00;91.40;;;;;;5070739;28;20128;-65
2023/06/12 04:20:00;;;;;;;1.88;1.15;;;16.00;91.40;;;;;;5072502;28;20120;-65
2023/06/12 04:22:27;;;;;;;1.60;0.90;;;16.00;91.40;;;;;;5070747;28;20033;-65
2023/06/12 04:24:54;;;;;;;2.05;0.93;;;16.10;91.50;;;;;;5053650;28;20048;-65
2023/06/12 04:27:20;;;;;;;2.33;1.10;;;16.10;91.60;;;;;;5054036;28;20051;-65
2023/06/12 04:29:46;;;;;;;1.83;1.00;;;16.10;91.60;;;;;;5070735;28;20127;-65
2023/06/12 04:32:13;;;;;;;0.93;0.50;;;16.20;91.60;;;;;;5071476;28;20048;-65
2023/06/12 04:34:41;;;;;;;4.13;1.35;;;16.30;91.70;;;;;;5070645;28;20059;-65
2023/06/12 04:37:13;;;;;;;1.98;0.98;;;16.30;91.60;;;;;;5070551;28;20051;-65
2023/06/12 04:39:40;;;;;;;1.73;1.00;;;16.30;92.00;;;;;;5069995;28;20116;-65
2023/06/12 04:42:07;;;;;;;3.97;0.82;;;16.40;92.10;;;;;;5070444;28;20043;-65
2023/06/12 04:44:34;;;;;;;1.42;0.70;;;16.40;92.30;;;;;;5071801;28;20047;-64
2023/06/12 04:47:11;;;;;;;1.10;0.80;;;16.50;92.20;;;;;;5069822;28;20052;-65
2023/06/12 04:49:40;;;;;;;4.45;1.17;;;16.50;92.30;;;;;;5071695;28;20041;-65
2023/06/12 04:52:08;;;;;;;1.40;0.82;;;16.60;92.10;;;;;;5070458;28;20048;-64
2023/06/12 04:54:40;;;;;;;2.25;1.38;;;16.70;92.10;;;;;;5070858;28;20044;-65
2023/06/12 04:57:12;;;;;;;2.20;1.40;;;16.70;92.00;;;;;;5071627;28;20123;-66
2023/06/12 04:59:39;;;;;;;1.00;0.60;;;16.80;92.30;;;;;;5069681;28;20044;-66
2023/06/12 05:02:06;;;;;;;2.22;1.00;;;16.90;92.30;;;;;;5070069;28;20036;-65
2023/06/12 05:04:32;;;;;;;3.45;1.08;;;17.00;92.20;;;;;;5052250;28;20040;-65
2023/06/12 05:06:59;;;;;;;2.75;0.90;;;17.10;92.00;;;;;;5070290;28;20120;-65
2023/06/12 05:09:25;;;;;;;3.42;1.30;;;17.10;92.00;;;;;;5068903;28;20032;-65
2023/06/12 05:11:51;;;;;;;3.03;1.55;;;17.20;92.30;;;;;;5068789;28;20037;-65
2023/06/12 05:14:17;;;;;;;1.85;0.80;;;17.20;92.40;;;;;;5051819;28;20043;-65
2023/06/12 05:16:46;;;;;;;2.17;1.23;;;17.30;92.50;;;;;;5070845;28;20052;-65
2023/06/12 05:19:13;;;;;;;2.72;1.10;;;17.40;92.60;;;;;;5069412;28;20043;-65
2023/06/12 05:21:41;;;;;;;1.98;1.40;;;17.40;92.40;;;;;;5068190;28;20098;-65
2023/06/12 05:24:10;;;;;;;3.17;0.77;;;17.50;92.40;;;;;;5052268;28;20131;-65
2023/06/12 05:26:37;;;;;;;1.73;1.33;;;17.60;92.30;;;;;;5068707;28;20083;-66
2023/06/12 05:29:03;;;;;;;2.03;1.05;;;17.60;92.50;;;;;;5067943;28;20124;-65
2023/06/12 05:31:29;;;;;;;2.00;1.27;;;17.70;92.50;;;;;;5069004;28;20128;-65
2023/06/12 05:33:55;;;;;;;2.17;1.13;;;17.80;92.30;;;;;;5052150;28;20080;-67
2023/06/12 05:36:21;;;;;;;2.88;1.30;;;17.90;92.40;;;;;;5051124;28;20049;-66
2023/06/12 05:38:47;;;;;;;1.92;1.13;;;18.00;92.50;;;;;;5068604;28;20044;-64
2023/06/12 05:41:14;;;;;;;2.97;1.60;;;18.10;92.70;;;;;;5068633;28;20032;-66
2023/06/12 05:43:40;;;;;;;2.85;1.10;;;18.20;92.80;;;;;;5050814;28;20040;-65
2023/06/12 05:46:06;;;;;;;1.70;1.30;;;18.40;92.50;;;;;;5068274;28;20082;-65
2023/06/12 05:48:32;;;;;;;3.13;1.30;;;18.60;92.40;;;;;;5068179;28;20076;-63
2023/06/12 05:50:57;;;;;;;2.00;1.13;;;18.70;92.40;;;;;;5069165;28;20052;-65
2023/06/12 05:53:23;;;;;;;1.80;1.15;;;18.80;92.30;;;;;;5069219;28;20070;-65
2023/06/12 05:55:49;;;;;;;2.22;1.23;;;19.00;92.30;;;;;;5067102;28;20129;-65
2023/06/12 05:58:15;;;;;;;2.75;1.30;;;19.20;92.40;;;;;;5068233;28;20505;-65
2023/06/12 06:00:42;;;;;;;1.58;0.70;;;19.40;92.30;;;;;;5068029;28;20095;-65
2023/06/12 06:03:08;;;;;;;1.52;0.95;;;19.50;92.20;;;;;;5067260;28;20058;-65
2023/06/12 06:05:34;;;;;;;3.08;0.90;;;19.70;92.10;;;;;;5069337;28;20119;-65
2023/06/12 06:07:59;;;;;;;2.72;1.17;;;19.90;92.10;;;;;;5051063;28;20091;-65
2023/06/12 06:10:26;;;;;;;1.98;1.10;;;20.10;92.10;;;;;;5047345;28;20068;-66
2023/06/12 06:12:53;;;;;;;2.30;1.50;;;20.30;92.00;;;;;;5047825;28;20517;-65
2023/06/12 06:15:19;;;;;;;3.42;1.50;;;20.40;91.40;;;;;;5047387;28;20549;-66
2023/06/12 06:17:45;;;;;;;1.90;1.08;;;20.50;91.30;;;;;;5047209;28;20118;-65
2023/06/12 06:20:12;;;;;;;2.63;1.45;;;20.70;91.40;;;;;;5047586;28;20509;-65
2023/06/12 06:22:37;;;;;;;3.08;1.30;;;20.80;91.50;;;;;;5049124;28;20041;-66
2023/06/12 06:25:04;;;;;;;2.65;1.15;;;21.00;91.50;;;;;;5030595;28;20122;-66
2023/06/12 06:27:32;;;;;;;4.45;1.40;;;21.20;91.40;;;;;;5048993;28;20044;-65
2023/06/12 06:29:57;;;;;;;4.65;1.13;;;21.30;91.00;;;;;;5048984;28;20074;-65
2023/06/12 06:32:23;;;;;;;1.90;1.08;;;21.50;91.00;;;;;;5046839;28;20048;-64
2023/06/12 06:34:49;;;;;;;2.22;1.30;;;21.70;91.40;;;;;;5047534;28;20036;-65
2023/06/12 06:37:15;;;;;;;3.47;1.00;;;22.00;91.10;;;;;;5047368;28;20060;-65
2023/06/12 06:39:40;;;;;;;1.88;0.98;;;22.20;91.10;;;;;;5047198;28;20025;-63
2023/06/12 06:42:06;;;;;;;3.13;1.08;;;22.50;91.20;;;;;;5047396;28;20037;-64
2023/06/12 06:44:32;;;;;;;2.50;1.00;;;22.80;91.30;;;;;;5047672;28;20180;-63
2023/06/12 06:46:58;;;;;;;3.78;1.05;;;23.00;90.90;;;;;;5047725;28;20524;-64
2023/06/12 06:49:26;;;;;;;1.98;1.02;;;23.20;91.10;;;;;;5047370;28;20119;-65
2023/06/12 06:51:52;;;;;;;2.67;1.10;;;23.40;91.20;;;;;;5048125;28;20060;-65
2023/06/12 06:54:18;;;;;;;3.42;1.17;;;23.60;91.00;;;;;;5047331;28;20041;-65
2023/06/12 06:56:44;;;;;;;2.95;1.30;;;23.70;90.70;;;;;;5048450;28;20048;-66
2023/06/12 06:59:10;;;;;;;5.53;2.05;;;23.90;90.40;;;;;;5048027;28;20486;-64
2023/06/12 07:01:37;;;;;;;4.28;0.98;;;24.10;89.50;;;;;;5048530;28;20039;-64
2023/06/12 07:04:03;;;;;;;3.25;1.45;;;24.30;89.70;;;;;;5029790;28;20494;-65
2023/06/12 07:06:30;;;;;;;3.53;1.23;;;24.50;89.60;;;;;;5045890;28;20493;-64
2023/06/12 07:08:56;;;;;;;2.83;1.27;;;24.70;88.60;;;;;;5046458;28;20045;-65
2023/06/12 07:11:21;;;;;;;1.60;0.82;;;24.90;89.10;;;;;;5047460;28;20060;-65
2023/06/12 07:13:47;;;;;;;3.25;1.63;;;25.30;89.30;;;;;;5046439;28;20404;-65
2023/06/12 07:16:14;;;;;;;2.45;1.00;;;25.50;88.00;;;;;;5048338;28;20033;-65
2023/06/12 07:18:39;;;;;;;2.17;1.10;;;25.60;87.30;;;;;;5047385;28;20075;-65
2023/06/12 07:21:05;;;;;;;2.70;1.20;;;25.70;86.90;;;;;;5047912;28;20394;-65
2023/06/12 07:23:31;;;;;;;2.88;1.08;;;25.80;86.70;;;;;;5048794;28;20089;-64
2023/06/12 07:25:57;;;;;;;4.75;1.10;;;26.00;87.00;;;;;;5030474;28;20048;-65
2023/06/12 07:28:22;;;;;;;3.40;1.20;;;26.10;85.60;;;;;;5048886;28;20045;-65
2023/06/12 07:30:48;;;;;;;2.70;1.20;;;26.30;83.60;;;;;;5051017;28;20404;-65
2023/06/12 07:33:15;;;;;;;2.10;0.73;;;26.40;84.20;;;;;;5052343;28;20048;-65
2023/06/12 07:35:40;;;;;;;2.83;1.17;;;26.50;83.80;;;;;;5050961;28;20039;-65
2023/06/12 07:38:06;;;;;;;1.45;0.90;;;26.70;83.80;;;;;;5051049;28;20124;-65
2023/06/12 07:40:32;;;;;;;3.90;1.02;;;26.90;84.30;;;;;;5049941;28;20044;-65
2023/06/12 07:42:58;;;;;;;1.63;0.82;;;27.00;84.00;;;;;;5050861;28;20040;-64
2023/06/12 07:45:24;;;;;;;2.55;1.02;;;27.20;82.90;;;;;;5050606;28;20127;-65
2023/06/12 07:47:52;;;;;;;1.90;0.80;;;27.40;82.30;;;;;;5033312;28;20124;-64
2023/06/12 07:50:19;;;;;;;2.38;1.13;;;27.70;81.80;;;;;;5051152;28;20144;-65
2023/06/12 07:52:45;;;;;;;3.20;0.90;;;27.90;80.90;;;;;;5050236;28;20056;-65
2023/06/12 07:55:11;;;;;;;2.92;1.20;;;27.90;79.60;;;;;;5049963;28;20044;-65
2023/06/12 07:57:37;;;;;;;1.98;1.20;;;28.00;80.00;;;;;;5050380;28;20124;-65
2023/06/12 08:00:07;;;;;;;1.50;0.90;;;28.10;78.20;;;;;;5050423;28;20072;-64
2023/06/12 08:02:34;;;;;;;1.80;0.90;;;28.30;78.60;;;;;;5049758;28;20033;-65
2023/06/12 08:05:00;;;;;;;2.15;1.05;;;28.40;79.00;;;;;;5050984;28;20044;-65
2023/06/12 08:07:27;;;;;;;4.30;1.25;;;28.70;79.60;;;;;;5050413;28;20051;-65
2023/06/12 08:09:53;;;;;;;1.55;0.90;;;28.90;79.50;;;;;;5050966;28;20485;-65
2023/06/12 08:12:19;;;;;;;2.45;0.90;;;29.00;79.00;;;;;;5050659;28;20119;-65
2023/06/12 08:14:47;;;;;;;1.35;0.70;;;29.00;79.10;;;;;;5050071;28;20043;-64
2023/06/12 08:17:13;;;;;;;1.85;1.00;;;28.90;79.80;;;;;;5032971;28;20102;-64
2023/06/12 08:19:41;;;;;;;2.08;0.93;;;28.80;79.30;;;;;;5049934;28;20051;-65
2023/06/12 08:22:07;;;;;;;1.85;0.90;;;28.90;79.20;;;;;;5050268;28;20052;-65
2023/06/12 08:24:35;;;;;;;2.28;1.05;;;29.00;78.60;;;;;;5049391;28;20048;-64
2023/06/12 08:27:04;;;;;;;2.05;0.95;;;28.90;78.60;;;;;;5033530;28;20033;-64
2023/06/12 08:29:30;;;;;;;3.47;1.15;;;28.90;77.90;;;;;;5050138;28;20045;-65
2023/06/12 08:31:56;;;;;;;2.80;1.13;;;29.00;77.40;;;;;;5049490;28;20103;-64
2023/06/12 08:34:26;;;;;;;1.48;0.88;;;29.10;77.00;;;;;;5049774;28;20049;-64
2023/06/12 08:36:55;;;;;;;2.58;1.05;;;29.30;77.50;;;;;;5049039;28;20044;-65
2023/06/12 08:39:21;;;;;;;2.70;1.23;;;29.30;77.10;;;;;;5049615;28;20119;-64
2023/06/12 08:42:08;;;;;;;1.67;0.95;;;29.40;76.70;;;;;;5049476;28;20573;-66
2023/06/12 08:44:35;;;;;;;6.20;1.25;;;29.50;74.90;;;;;;5049152;28;20047;-65
2023/06/12 08:47:03;;;;;;;2.00;1.10;;;29.50;75.60;;;;;;5049555;28;20417;-65
2023/06/12 08:49:32;;;;;;;1.63;0.80;;;29.50;75.90;;;;;;5047822;28;20124;-65
2023/06/12 08:52:00;;;;;;;3.95;1.20;;;29.60;76.10;;;;;;5032045;28;20409;-65
2023/06/12 08:54:27;;;;;;;3.33;1.35;;;29.70;76.00;;;;;;5049435;28;20528;-65
2023/06/12 08:56:57;;;;;;;2.15;1.20;;;29.80;76.10;;;;;;5049554;28;20052;-65
2023/06/12 08:59:22;;;;;;;2.40;0.90;;;29.90;75.80;;;;;;5032317;28;20041;-65
2023/06/12 09:01:53;;;;;;;2.50;0.90;;;30.00;75.40;;;;;;5033148;28;20048;-65
2023/06/12 09:04:45;;;;;;;2.90;1.25;;;30.10;75.50;;;;;;5050689;28;20075;-66
2023/06/12 09:07:12;;;;;;;2.47;1.02;;;30.20;74.60;;;;;;5049102;28;20077;-65
2023/06/12 09:09:39;;;;;;;1.45;1.08;;;30.20;75.00;;;;;;5049033;28;20094;-66
2023/06/12 09:12:10;;;;;;;2.42;1.25;;;30.30;74.50;;;;;;5048415;28;20040;-66
2023/06/12 09:14:36;;;;;;;1.30;0.73;;;30.40;74.10;;;;;;5048878;28;20051;-65
2023/06/12 09:17:03;;;;;;;5.32;1.17;;;30.60;74.10;;;;;;5050163;28;20076;-65
2023/06/12 09:19:36;;;;;;;2.35;1.05;;;30.80;73.60;;;;;;5049745;28;20041;-65
2023/06/12 09:22:03;;;;;;;1.67;1.17;;;31.10;70.70;;;;;;5050248;28;20489;-65
2023/06/12 09:24:28;;;;;;;4.63;1.17;;;31.30;70.90;;;;;;5049062;28;20497;-65
2023/06/12 09:26:57;;;;;;;2.30;1.02;;;31.40;69.20;;;;;;5049352;28;20076;-66
2023/06/12 09:29:30;;;;;;;2.05;1.08;;;31.30;68.30;;;;;;5048740;28;20106;-67
2023/06/12 09:32:00;;;;;;;3.00;1.55;;;31.20;66.50;;;;;;5032156;28;20111;-66
2023/06/12 09:34:27;;;;;;;2.78;0.95;;;31.10;68.10;;;;;;5031895;28;20363;-65
2023/06/12 09:36:53;;;;;;;2.38;1.13;;;30.90;68.90;;;;;;5048723;28;20083;-65
2023/06/12 09:39:29;;;;;;;3.03;1.33;;;31.10;69.40;;;;;;5050028;28;20390;-65
2023/06/12 09:41:56;;;;;;;2.33;1.30;;;31.30;65.80;;;;;;5049016;28;20048;-65
2023/06/12 09:44:28;;;;;;;2.08;1.00;;;31.50;67.50;;;;;;5048383;28;20527;-65
2023/06/12 09:47:01;;;;;;;2.88;1.05;;;31.70;67.20;;;;;;5047945;28;20053;-66
2023/06/12 09:49:27;;;;;;;2.33;1.08;;;31.80;64.90;;;;;;5048359;28;20041;-65
2023/06/12 09:51:54;;;;;;;1.55;0.98;;;31.70;65.50;;;;;;5048710;28;20052;-65
2023/06/12 09:54:22;;;;;;;2.03;1.13;;;31.60;64.10;;;;;;5030926;28;20045;-65
2023/06/12 09:56:51;;;;;;;4.88;1.30;;;31.70;63.30;;;;;;5047918;28;20106;-65
2023/06/12 09:59:19;;;;;;;2.20;1.13;;;31.90;63.10;;;;;;5049297;28;20375;-65
2023/06/12 10:01:51;;;;;;;1.92;1.35;;;32.10;62.10;;;;;;5047934;28;20040;-65
2023/06/12 10:04:34;;;;;;;2.55;1.20;;;32.30;61.60;;;;;;5049081;28;20440;-65
2023/06/12 10:07:16;;;;;;;1.90;1.13;;;32.60;57.30;;;;;;5048844;28;20037;-65
2023/06/12 10:09:43;;;;;;;1.38;0.85;;;32.70;60.20;;;;;;5048016;28;20120;-65
2023/06/12 10:12:11;;;;;;;2.85;1.75;;;32.80;61.70;;;;;;5049769;28;20041;-66
2023/06/12 10:14:38;;;;;;;1.95;1.35;;;32.80;61.10;;;;;;5047979;28;20112;-65
2023/06/12 10:17:06;;;;;;;1.55;0.93;;;32.60;60.90;;;;;;5048005;28;20052;-67
2023/06/12 10:19:34;;;;;;;3.95;1.05;;;32.60;61.20;;;;;;5048646;28;20036;-67
2023/06/12 10:22:03;;;;;;;2.17;1.00;;;32.40;59.50;;;;;;5048200;28;20486;-66
2023/06/12 10:24:30;;;;;;;1.88;1.17;;;32.30;59.00;;;;;;5048963;28;20123;-65
2023/06/12 10:26:57;;;;;;;2.00;1.20;;;32.20;58.90;;;;;;5049317;28;20033;-65
2023/06/12 10:29:34;;;;;;;1.98;1.00;;;32.30;59.50;;;;;;5049360;28;20347;-65
2023/06/12 10:32:10;;;;;;;2.20;1.38;;;32.40;58.60;;;;;;5049777;28;20044;-66
2023/06/12 10:34:41;;;;;;;2.20;1.02;;;32.40;55.60;;;;;;5049381;28;20064;-66
2023/06/12 10:37:23;;;;;;;1.52;1.15;;;32.50;58.60;;;;;;5047347;28;20494;-67
2023/06/12 10:40:10;;;;;;;4.22;1.10;;;32.60;58.10;;;;;;5048345;28;20043;-67
2023/06/12 10:42:54;;;;;;;3.42;1.25;;;32.60;58.10;;;;;;5048790;28;20041;-66
2023/06/12 10:45:27;;;;;;;2.63;1.15;;;32.70;54.40;;;;;;5049465;28;20423;-66
2023/06/12 10:48:02;;;;;;;1.55;0.95;;;32.80;59.00;;;;;;5048334;28;20049;-66
2023/06/12 10:50:32;;;;;;;2.95;1.40;;;33.10;58.40;;;;;;5048801;28;20094;-66
2023/06/12 10:53:03;;;;;;;2.10;1.15;;;33.40;57.70;;;;;;5049783;28;20089;-66
2023/06/12 10:55:29;;;;;;;2.10;1.30;;;33.50;56.90;;;;;;5014930;28;20083;-66
2023/06/12 10:58:12;;;;;;;1.88;1.25;;;33.60;57.70;;;;;;5048127;28;20040;-66
2023/06/12 11:00:45;;;;;;;2.00;1.10;;;33.80;56.90;;;;;;5031639;28;20432;-66
2023/06/12 11:03:17;;;;;;;2.63;1.42;;;34.10;56.80;;;;;;5033746;28;20041;-66
2023/06/12 11:05:59;;;;;;;2.42;1.10;;;34.20;57.10;;;;;;5053046;28;20032;-67
2023/06/12 11:08:30;;;;;;;2.00;0.82;;;34.20;55.10;;;;;;5052085;28;20045;-66
2023/06/12 11:10:56;;;;;;;2.40;1.35;;;34.30;56.60;;;;;;5051705;28;20099;-66
2023/06/12 11:13:26;;;;;;;1.77;1.20;;;34.20;56.30;;;;;;5052180;28;20413;-65
2023/06/12 11:15:53;;;;;;;2.53;1.30;;;34.10;54.00;;;;;;5035241;28;20037;-66
2023/06/12 11:18:20;;;;;;;2.38;1.17;;;34.00;53.00;;;;;;5051357;28;20041;-66
2023/06/12 11:20:55;;;;;;;2.15;1.25;;;34.00;52.90;;;;;;5053518;28;20068;-67
2023/06/12 11:23:23;;;;;;;1.48;0.95;;;33.80;49.00;;;;;;5053250;28;20502;-67
2023/06/12 11:25:52;;;;;;;3.50;1.00;;;33.70;51.70;;;;;;5051273;28;20045;-66
2023/06/12 11:28:20;;;;;;;3.80;1.48;;;33.80;52.20;;;;;;5051814;28;20055;-67
2023/06/12 11:30:56;;;;;;;2.42;1.25;;;33.70;50.10;;;;;;5052237;28;20117;-66
2023/06/12 11:33:22;;;;;;;2.97;1.35;;;33.90;50.50;;;;;;5052711;28;20138;-68
2023/06/12 11:35:56;;;;;;;3.05;1.67;;;33.90;50.00;;;;;;5035151;28;20489;-66
2023/06/12 11:38:22;;;;;;;3.97;1.38;;;33.60;47.90;;;;;;5051843;28;20052;-67
2023/06/12 11:40:50;;;;;;;2.00;1.10;;;33.50;49.90;;;;;;5051103;28;20041;-65
2023/06/12 11:43:19;;;;;;;3.50;1.63;;;33.40;48.20;;;;;;5052827;28;20033;-66
2023/06/12 11:45:47;;;;;;;1.88;1.05;;;33.40;47.90;;;;;;5052218;28;20041;-66
2023/06/12 11:48:16;;;;;;;2.08;1.17;;;33.40;48.10;;;;;;5035090;28;20072;-65
2023/06/12 11:50:49;;;;;;;2.25;1.48;;;33.40;48.70;;;;;;5052702;28;20127;-66
2023/06/12 11:53:17;;;;;;;2.88;1.45;;;33.50;46.20;;;;;;5051244;28;20053;-66
2023/06/12 11:55:47;;;;;;;1.95;1.45;;;33.40;46.70;;;;;;5051194;28;20055;-66
2023/06/12 11:58:13;;;;;;;2.30;1.40;;;33.40;47.10;;;;;;5051443;28;20045;-68
2023/06/12 12:00:41;;;;;;;2.40;1.42;;;33.40;48.30;;;;;;5050360;28;20520;-66
2023/06/12 12:03:13;;;;;;;4.13;1.57;;;33.40;48.00;;;;;;5050666;28;20441;-67
2023/06/12 12:05:39;;;;;;;2.75;1.70;;;33.40;48.10;;;;;;5050460;28;20080;-66
2023/06/12 12:08:07;;;;;;;3.80;1.92;;;33.20;47.80;;;;;;5050963;28;20041;-66
2023/06/12 12:10:40;;;;;;;2.53;1.52;;;32.90;47.90;;;;;;5033342;28;20045;-67
2023/06/12 12:13:06;;;;;;;3.60;1.83;;;32.80;47.10;;;;;;5049375;28;20041;-66
2023/06/12 12:15:35;;;;;;;3.20;1.50;;;32.70;46.80;;;;;;5049787;28;20037;-65
2023/06/12 12:18:01;;;;;;;3.00;2.17;;;32.60;47.90;;;;;;5051903;28;20507;-68
2023/06/12 12:20:29;;;;;;;2.47;1.63;;;32.60;47.90;;;;;;5051058;28;20095;-67
2023/06/12 12:22:56;;;;;;;;;;;32.50;47.60;;;;;;5050804;28;20037;-69
2023/06/12 12:25:28;;;;;;;2.85;1.75;;;32.50;47.80;;;;;;5050840;28;19916;-66
2023/06/12 12:27:56;;;;;;;3.33;2.40;;;32.20;47.50;;;;;;5050328;28;20206;-66
2023/06/12 12:30:22;;;;;;;2.45;1.70;;;31.90;46.50;;;;;;5050982;28;20072;-66
2023/06/12 12:32:51;;;;;;;4.45;1.58;;;31.80;46.60;;;;;;5051965;28;20044;-66
2023/06/12 12:35:17;;;;;;;3.08;1.95;;;31.80;46.90;;;;;;5050874;28;20044;-66
2023/06/12 12:37:47;;;;;;;4.43;1.75;;;31.90;46.30;;;;;;5050297;28;20037;-66
2023/06/12 12:40:14;;;;;;;4.00;1.77;;;32.00;46.20;;;;;;5049405;28;20072;-66
2023/06/12 12:42:43;;;;;;;3.78;2.00;;;32.00;46.90;;;;;;5056334;28;20040;-66
2023/06/12 12:45:10;;;;;;;3.15;1.92;;;32.10;47.10;;;;;;5069592;28;20102;-66
2023/06/12 12:47:37;;;;;;;3.55;2.00;;;32.20;46.10;;;;;;5069317;28;20052;-66
2023/06/12 12:50:04;;;;;;;3.30;2.10;;;32.30;47.30;;;;;;5068753;28;20059;-67
2023/06/12 12:52:33;;;;;;;3.50;2.60;;;32.20;47.20;;;;;;5069460;28;20083;-65